• Join FlightAware (Why Join?)
  • Login
  • US Flag 
12:50PM EDT


 

Airport Tracker/Info


-or-


 

Live Flight TrackerFlight Track Log ✈ AWI4084 ✈ 16-Jun-2013 ✈ KDCA - KSYR

Flight Track Log - Related Links

Times and Time Zones

All times are in EDT time to prevent confusion due to time zone crossing. See the AWI4084 flight status page for this flight to view local times or setup timezone preferences in your user account.

Time Position Orientation Groundspeed Altitude Reporting Facility
EDT Latitude Longitude Course Direction KTS MPH feet Rate Location/Type
03:33PM 38.8167 -77.0333 337° Northwest 162 186 1,400  Level Potomac TRACON
03:34PM 38.7667 -77.0333 180° South 211 243 3,500 1,920 Climbing Potomac TRACON
03:35PM 38.7333 -77.1000 237° Southwest 253 291 5,300 2,160 Climbing Potomac TRACON
03:36PM 39.1525 -77.1991 336° Northwest  Level FlightAware Approximate
03:36PM 38.7167 -77.1833 256° West 264 304 7,900  Level Potomac TRACON
03:37PM 39.2325 -77.2330 346° North  Level FlightAware Approximate
03:37PM 38.7667 -77.2500 314° West 266 306 10,400  Level Potomac TRACON
03:38PM 39.3101 -77.2759 337° Northwest  Level FlightAware Approximate
03:38PM 38.8167 -77.3000 322° Northwest 293 337 11,300  Level Potomac TRACON
03:39PM 38.9000 -77.3333 343° North 332 382 12,100 720 Climbing Potomac TRACON
03:40PM 39.0000 -77.4000 333° Northwest 402 463 12,800 840 Climbing Potomac TRACON
03:41PM 39.1000 -77.4167 353° North 377 434 13,800 1,080 Climbing Potomac TRACON
03:43PM 39.3244 -77.4347 356° North 385 443 16,200 1,140 Climbing Washington Center
03:44PM 39.4308 -77.4403 358° North 385 443 17,400 1,140 Climbing Washington Center
03:45PM 39.5389 -77.4483 357° North 385 443 18,600 1,200 Climbing Washington Center
03:47PM 39.7094 -77.4531 359° North 387 445 20,800 1,320 Climbing New York Center
03:48PM 39.8139 -77.4522 360° North 382 440 22,300 1,500 Climbing New York Center
03:49PM 39.9161 -77.4511 360° North 376 433 23,800 1,320 Climbing New York Center
03:50PM 40.0142 -77.4497 North 365 420 25,000 540 Climbing New York Center
03:51PM 40.1339 -77.4311 North 371 427 25,000  Level New York Center
03:52PM 40.2419 -77.3628 26° Northeast 391 450 25,000  Level New York Center
03:53PM 40.3519 -77.2969 25° Northeast 412 474 25,000  Level New York Center
03:54PM 40.4600 -77.2308 25° Northeast 418 481 25,000  Level New York Center
03:55PM 40.5719 -77.1619 25° Northeast 428 493 25,000  Level New York Center
03:56PM 40.6819 -77.0928 25° Northeast 440 506 25,000  Level New York Center
03:57PM 40.7986 -77.0186 26° Northeast 440 506 25,000 -480 Level New York Center
03:58PM 40.9128 -76.9467 25° Northeast 446 513 24,100 -1,020 Descending New York Center
03:59PM 41.0356 -76.8697 25° Northeast 457 526 23,000 -600 Descending New York Center
04:00PM 41.1539 -76.7950 25° Northeast 467 537 23,000  Level New York Center
04:01PM 41.2725 -76.7200 25° Northeast 472 543 23,000  Level New York Center
04:02PM 41.3864 -76.6469 26° Northeast 465 535 23,000  Level New York Center
04:03PM 41.4789 -76.5858 26° Northeast 460 529 23,000  Level New York Center
04:04PM 41.6083 -76.5389 15° North 448 516 23,000 -600 Level New York Center
04:05PM 41.7261 -76.5156 North 437 503 21,900 -1,320 Descending New York Center
04:06PM 41.8481 -76.4928 North 432 497 20,400 -1,560 Descending New York Center
04:07PM 41.9658 -76.4667 North 432 497 18,900 -1,620 Descending New York Center
04:08PM 42.0814 -76.4431 North 432 497 17,300 -960 Descending New York Center
04:09PM 42.1931 -76.4192 North 419 482 17,000 -600 Descending New York Center
04:10PM 42.2961 -76.3972 North 394 453 16,100 -1,620 Descending New York Center
04:11PM 42.4178 -76.3694 10° North 360 414 13,700 -2,040 Descending Boston Center
04:12PM 42.5144 -76.3475 North 358 412 11,900 -1,440 Descending Boston Center
04:13PM 42.6153 -76.3311 North 362 417 10,900 -900 Descending Boston Center
04:14PM 42.6972 -76.3108 10° North 306 352 10,200 -1,200 Descending Boston Center
04:15PM 42.7750 -76.2931 10° North 272 313 8,500 -1,620 Descending Boston Center
04:16PM 42.8506 -76.2781 North 273 314 7,000 -1,680 Descending Boston Center
04:17PM 42.9197 -76.2625 North 254 292 5,200 -1,560 Descending Boston Center
04:18PM 42.9581 -76.1797 58° Northeast 273 314 3,900 -660 Descending Boston Center
04:19PM 42.9778 -76.0872 74° East 259 298 3,900  Level Boston Center
04:20PM 43.0036 -75.9922 70° East 265 305 3,900  Level Boston Center
04:21PM 43.0256 -75.8883 74° East 275 316 3,900 -540 Level Boston Center
04:22PM 43.0792 -75.8431 32° Northeast 256 295 2,900 -780 Descending Boston Center
04:23PM 43.1153 -75.8878 318° Northwest 176 203 2,500 -240 Descending Boston Center
04:24PM 43.1139 -75.9358 268° West 149 171 2,500  Level Boston Center